Time;durP1;ratioP1;P1;durP2;ratioP2;P2;SDS_P1;SDS_P2;PMS_P1;PMS_P2;Temp;Humidity;BMP_temperature;BMP_pressure;BME280_temperature;BME280_humidity;BME280_pressure;Samples;Min_cycle;Max_cycle;Signal;HPM_P1;HPM_P2
2022/09/29 00:02:18;;;;;;;16.60;2.70;;;37.80;51.10;;;;;;5049841;28;20378;-62
2022/09/29 00:04:44;;;;;;;16.85;2.20;;;37.80;51.10;;;;;;5050094;28;20029;-61
2022/09/29 00:07:11;;;;;;;15.25;2.60;;;37.70;52.10;;;;;;5049284;28;20021;-61
2022/09/29 00:09:37;;;;;;;19.35;2.72;;;37.50;51.20;;;;;;5054973;28;20028;-61
2022/09/29 00:12:03;;;;;;;24.33;3.05;;;37.50;52.10;;;;;;5051211;28;20078;-61
2022/09/29 00:14:30;;;;;;;21.98;2.25;;;37.40;52.10;;;;;;5048577;28;20020;-60
2022/09/29 00:16:56;;;;;;;14.35;2.38;;;37.30;52.60;;;;;;5049393;28;20024;-60
2022/09/29 00:19:23;;;;;;;14.13;2.67;;;37.20;52.50;;;;;;5050134;28;21641;-60
2022/09/29 00:21:49;;;;;;;19.13;2.70;;;37.20;52.60;;;;;;5049606;28;20537;-60
2022/09/29 00:24:15;;;;;;;25.08;2.97;;;37.10;52.90;;;;;;5045758;28;20485;-60
2022/09/29 00:26:45;;;;;;;17.50;2.50;;;37.10;52.70;;;;;;5049463;28;20398;-63
2022/09/29 00:29:12;;;;;;;17.15;3.05;;;36.90;52.90;;;;;;5048488;28;20045;-62
2022/09/29 00:31:38;;;;;;;16.55;2.47;;;36.90;52.90;;;;;;5048125;28;20021;-63
2022/09/29 00:34:05;;;;;;;19.85;2.63;;;36.70;52.70;;;;;;5048094;28;20031;-61
2022/09/29 00:36:31;;;;;;;15.13;2.60;;;36.80;52.90;;;;;;5050609;28;20031;-61
2022/09/29 00:38:58;;;;;;;20.35;3.05;;;36.70;54.60;;;;;;5050573;28;20108;-60
2022/09/29 00:41:34;;;;;;;27.38;3.20;;;36.70;55.70;;;;;;5052327;28;20112;-62
2022/09/29 00:44:20;;;;;;;18.00;3.22;;;36.60;55.90;;;;;;5051940;28;20021;-61
2022/09/29 00:46:52;;;;;;;;;;;36.50;56.60;;;;;;5034435;28;20092;-60
2022/09/29 00:49:27;;;;;;;24.25;3.38;;;36.40;56.80;;;;;;5048542;28;19950;-59
2022/09/29 00:51:57;;;;;;;19.77;3.58;;;36.30;56.60;;;;;;5052054;28;20477;-63
2022/09/29 00:54:27;;;;;;;17.90;2.90;;;36.20;57.00;;;;;;5049160;28;20032;-60
2022/09/29 00:56:55;;;;;;;16.42;2.97;;;36.10;57.00;;;;;;5048284;28;20474;-62
2022/09/29 00:59:38;;;;;;;18.77;3.28;;;36.00;57.50;;;;;;5047957;28;20032;-60
2022/09/29 01:02:05;;;;;;;19.80;3.08;;;35.90;57.30;;;;;;5048573;28;20029;-58
2022/09/29 01:04:31;;;;;;;18.38;3.20;;;35.90;57.40;;;;;;5050680;28;20497;-60
2022/09/29 01:06:58;;;;;;;21.70;2.92;;;35.80;57.70;;;;;;5050174;28;20036;-63
2022/09/29 01:09:31;;;;;;;18.75;3.30;;;35.80;57.80;;;;;;5048350;28;20025;-60
2022/09/29 01:11:59;;;;;;;29.50;3.60;;;35.70;57.70;;;;;;5047802;28;20021;-61
2022/09/29 01:14:28;;;;;;;16.20;3.00;;;35.70;57.90;;;;;;5049048;28;20449;-62
2022/09/29 01:16:54;;;;;;;14.23;2.80;;;35.70;58.20;;;;;;5050939;28;20021;-55
2022/09/29 01:19:47;;;;;;;22.77;3.13;;;35.60;58.40;;;;;;5048102;28;20032;-61
2022/09/29 01:22:41;;;;;;;24.30;3.65;;;35.60;58.60;;;;;;5041714;28;20040;-61
2022/09/29 01:25:20;;;;;;;21.17;3.13;;;35.50;59.10;;;;;;5044936;28;20029;-61
2022/09/29 01:28:33;;;;;;;16.42;3.15;;;35.30;59.70;;;;;;5047794;28;20045;-62
2022/09/29 01:31:11;;;;;;;21.48;2.80;;;35.20;59.70;;;;;;5001934;28;20042;-61
2022/09/29 01:34:16;;;;;;;20.88;2.83;;;35.20;60.20;;;;;;5002397;28;20030;-62
2022/09/29 01:36:45;;;;;;;19.63;3.30;;;35.20;59.40;;;;;;5001944;28;20045;-61
2022/09/29 01:39:30;;;;;;;31.30;3.88;;;35.20;59.50;;;;;;5001373;28;20054;-60
2022/09/29 01:42:06;;;;;;;26.95;3.50;;;35.10;60.00;;;;;;4999689;28;20034;-62
2022/09/29 01:44:54;;;;;;;24.00;3.97;;;35.00;60.40;;;;;;5002294;28;20513;-61
2022/09/29 01:47:29;;;;;;;26.88;3.38;;;34.80;60.40;;;;;;5002709;28;20068;-63
2022/09/29 01:50:05;;;;;;;21.52;3.33;;;34.80;59.80;;;;;;5001470;28;20030;-62
2022/09/29 01:52:43;;;;;;;25.15;3.38;;;34.80;60.00;;;;;;5002341;28;20391;-61
2022/09/29 01:55:20;;;;;;;21.55;3.55;;;34.70;60.60;;;;;;4986948;28;20160;-62
2022/09/29 01:57:59;;;;;;;21.38;4.40;;;34.70;61.00;;;;;;5001103;28;20029;-62
2022/09/29 02:00:30;;;;;;;27.13;4.65;;;34.70;61.60;;;;;;5001649;28;20030;-62
2022/09/29 02:03:14;;;;;;;23.58;3.50;;;34.60;62.20;;;;;;5001381;28;20065;-61
2022/09/29 02:05:58;;;;;;;20.35;3.75;;;34.60;63.30;;;;;;5002566;28;20054;-62
2022/09/29 02:08:37;;;;;;;21.17;2.85;;;34.50;63.80;;;;;;5039719;28;20045;-63
2022/09/29 02:11:12;;;;;;;17.27;3.30;;;34.40;64.20;;;;;;5051769;28;20529;-62
2022/09/29 02:13:56;;;;;;;18.88;3.22;;;34.30;64.30;;;;;;5056203;28;20029;-62
2022/09/29 02:16:37;;;;;;;18.95;3.58;;;34.30;64.60;;;;;;5055396;28;20017;-63
2022/09/29 02:19:28;;;;;;;18.48;3.00;;;34.30;64.60;;;;;;5061283;28;20028;-62
2022/09/29 02:21:55;;;;;;;16.13;3.55;;;34.20;64.80;;;;;;5048117;28;20482;-61
2022/09/29 02:24:23;;;;;;;17.40;4.50;;;34.20;65.10;;;;;;5049116;28;20444;-62
2022/09/29 02:26:50;;;;;;;26.38;5.50;;;34.20;65.40;;;;;;5050011;28;21478;-62
2022/09/29 02:29:18;;;;;;;27.08;4.25;;;34.10;65.70;;;;;;5050955;28;20116;-63
2022/09/29 02:31:46;;;;;;;25.55;5.90;;;34.10;66.30;;;;;;5057522;28;20025;-61
2022/09/29 02:34:18;;;;;;;29.33;5.50;;;34.10;66.30;;;;;;5054072;28;20029;-62
2022/09/29 02:36:56;;;;;;;25.77;5.13;;;34.00;66.60;;;;;;5059009;28;20027;-61
2022/09/29 02:39:34;;;;;;;15.90;4.22;;;34.00;66.70;;;;;;5056649;28;20073;-61
2022/09/29 02:42:06;;;;;;;20.40;4.32;;;33.90;67.60;;;;;;5054976;28;20025;-62
2022/09/29 02:45:05;;;;;;;18.73;4.78;;;33.80;68.50;;;;;;5050442;28;20050;-61
2022/09/29 02:48:04;;;;;;;24.85;5.20;;;33.80;69.40;;;;;;5053366;28;20027;-63
2022/09/29 02:51:02;;;;;;;16.45;4.93;;;33.80;69.50;;;;;;5061304;28;20024;-62
2022/09/29 02:53:28;;;;;;;;;;;33.80;69.40;;;;;;5057107;28;20013;-61
2022/09/29 02:56:21;;;;;;;24.43;5.07;;;33.70;69.30;;;;;;5055428;28;20050;-61
2022/09/29 02:58:59;;;;;;;26.25;5.07;;;33.70;69.30;;;;;;5054218;28;20789;-63
2022/09/29 03:01:29;;;;;;;20.35;4.35;;;33.70;69.20;;;;;;5060386;28;20028;-62
2022/09/29 03:03:56;;;;;;;16.67;3.60;;;33.60;69.60;;;;;;5055774;28;20102;-61
2022/09/29 03:06:22;;;;;;;16.00;3.95;;;33.50;70.00;;;;;;5057458;28;20489;-62
2022/09/29 03:08:48;;;;;;;15.27;4.32;;;33.50;70.80;;;;;;5055298;28;20032;-62
2022/09/29 03:11:15;;;;;;;18.80;4.07;;;33.50;71.00;;;;;;5054018;28;20032;-63
2022/09/29 03:13:41;;;;;;;17.73;3.83;;;33.50;71.70;;;;;;5058644;28;20017;-60
2022/09/29 03:16:08;;;;;;;17.02;3.58;;;33.50;72.00;;;;;;5050528;28;20121;-59
2022/09/29 03:18:34;;;;;;;18.80;3.42;;;33.40;71.90;;;;;;5052797;28;20039;-63
2022/09/29 03:21:00;;;;;;;14.55;3.63;;;33.30;72.60;;;;;;5051677;28;20497;-61
2022/09/29 03:23:27;;;;;;;14.95;4.38;;;33.30;72.90;;;;;;5055844;28;20033;-63
2022/09/29 03:25:53;;;;;;;17.95;4.80;;;33.30;72.90;;;;;;5048974;28;20036;-63
2022/09/29 03:28:20;;;;;;;11.52;3.72;;;33.30;73.00;;;;;;5050291;28;20024;-61
2022/09/29 03:30:46;;;;;;;16.58;4.60;;;33.20;73.40;;;;;;5050630;28;20068;-63
2022/09/29 03:33:12;;;;;;;16.77;4.50;;;33.20;73.90;;;;;;5049653;28;20044;-60
2022/09/29 03:35:40;;;;;;;26.50;4.78;;;33.10;74.40;;;;;;5056422;28;20108;-62
2022/09/29 03:38:06;;;;;;;24.60;5.82;;;33.10;75.00;;;;;;5050982;28;20035;-63
2022/09/29 03:40:33;;;;;;;25.48;6.80;;;32.90;75.70;;;;;;5057837;28;20494;-61
2022/09/29 03:42:59;;;;;;;23.13;5.25;;;32.90;76.30;;;;;;5053535;28;20021;-60
2022/09/29 03:45:26;;;;;;;19.05;4.70;;;32.90;76.70;;;;;;5049634;28;20128;-60
2022/09/29 03:47:52;;;;;;;22.25;4.68;;;32.80;77.70;;;;;;5050696;28;20048;-63
2022/09/29 03:50:18;;;;;;;14.88;3.72;;;32.70;78.20;;;;;;5055055;28;20450;-62
2022/09/29 03:52:45;;;;;;;12.82;3.20;;;32.70;78.90;;;;;;5052393;28;20025;-59
2022/09/29 03:55:11;;;;;;;15.88;3.45;;;32.70;78.30;;;;;;5049934;28;20060;-61
2022/09/29 03:57:38;;;;;;;18.75;3.63;;;32.60;78.20;;;;;;5051756;28;20021;-61
2022/09/29 04:00:04;;;;;;;14.07;3.10;;;32.60;78.60;;;;;;5050041;28;20060;-61
2022/09/29 04:02:33;;;;;;;18.92;3.85;;;32.60;78.90;;;;;;5049756;28;20025;-62
2022/09/29 04:04:59;;;;;;;19.98;3.58;;;32.60;79.20;;;;;;5049283;28;20071;-62
2022/09/29 04:07:26;;;;;;;16.02;3.80;;;32.60;79.70;;;;;;5050650;28;20074;-62
2022/09/29 04:09:52;;;;;;;16.83;3.67;;;32.60;79.80;;;;;;5049120;28;20047;-60
2022/09/29 04:12:19;;;;;;;17.00;4.15;;;32.50;80.50;;;;;;5049037;28;20025;-61
2022/09/29 04:14:45;;;;;;;12.27;3.85;;;32.50;80.90;;;;;;5048813;28;20096;-61
2022/09/29 04:17:11;;;;;;;13.27;3.65;;;32.50;81.70;;;;;;5049774;28;20025;-61
2022/09/29 04:19:38;;;;;;;17.40;3.45;;;32.50;82.10;;;;;;5050629;28;20037;-62
2022/09/29 04:22:04;;;;;;;17.95;3.63;;;32.50;83.20;;;;;;5049383;28;20025;-60
2022/09/29 04:24:31;;;;;;;21.30;3.55;;;32.50;83.90;;;;;;5049587;28;20096;-61
2022/09/29 04:26:57;;;;;;;19.33;3.20;;;32.50;84.50;;;;;;5047188;28;20498;-60
2022/09/29 04:29:23;;;;;;;17.33;3.85;;;32.40;85.40;;;;;;5052917;28;20557;-62
2022/09/29 04:31:50;;;;;;;22.60;3.72;;;32.40;86.50;;;;;;5049593;28;20029;-62
2022/09/29 04:34:16;;;;;;;25.90;4.43;;;32.30;87.30;;;;;;5049280;28;20100;-60
2022/09/29 04:36:43;;;;;;;18.58;3.65;;;32.30;88.10;;;;;;5049316;28;20017;-63
2022/09/29 04:39:09;;;;;;;16.52;3.72;;;32.30;88.70;;;;;;5049677;28;20020;-62
2022/09/29 04:41:38;;;;;;;23.38;4.50;;;32.20;89.30;;;;;;5049892;28;20040;-63
2022/09/29 04:44:05;;;;;;;19.67;4.50;;;32.30;89.90;;;;;;5049300;28;20020;-61
2022/09/29 04:46:31;;;;;;;16.23;4.03;;;32.30;90.10;;;;;;5047673;28;20049;-63
2022/09/29 04:48:58;;;;;;;20.15;3.70;;;32.20;90.30;;;;;;5049101;28;20094;-61
2022/09/29 04:51:26;;;;;;;20.45;3.70;;;32.20;90.30;;;;;;5055575;28;20077;-62
2022/09/29 04:53:53;;;;;;;21.67;3.88;;;32.10;90.60;;;;;;5049413;28;20040;-64
2022/09/29 04:56:19;;;;;;;19.30;4.60;;;32.10;90.80;;;;;;5051969;28;20017;-62
2022/09/29 04:58:46;;;;;;;16.42;4.60;;;32.00;90.70;;;;;;5048645;28;20017;-62
2022/09/29 05:01:12;;;;;;;20.63;4.78;;;32.00;90.50;;;;;;5048547;28;20041;-62
2022/09/29 05:03:39;;;;;;;20.83;4.78;;;32.00;90.20;;;;;;5049537;28;20040;-66
2022/09/29 05:06:08;;;;;;;29.45;5.68;;;32.10;90.00;;;;;;5047877;28;20075;-62
2022/09/29 05:08:34;;;;;;;28.42;5.95;;;32.10;88.40;;;;;;5048292;28;20466;-62
2022/09/29 05:11:08;;;;;;;17.35;5.15;;;32.10;86.40;;;;;;5048311;28;20057;-62
2022/09/29 05:13:35;;;;;;;25.77;5.07;;;32.10;86.00;;;;;;5048876;28;20036;-62
2022/09/29 05:16:02;;;;;;;15.32;4.97;;;32.10;85.50;;;;;;5049943;28;20044;-61
2022/09/29 05:18:29;;;;;;;26.45;5.63;;;32.10;84.00;;;;;;5048813;28;20020;-61
2022/09/29 05:21:00;;;;;;;15.80;5.40;;;32.10;83.50;;;;;;5049190;28;20092;-60
2022/09/29 05:23:28;;;;;;;17.83;4.60;;;32.10;83.70;;;;;;5049646;28;20017;-64
2022/09/29 05:25:54;;;;;;;20.27;4.40;;;32.10;83.60;;;;;;5049905;28;20094;-62
2022/09/29 05:28:20;;;;;;;28.95;5.40;;;32.10;84.10;;;;;;5046436;28;20018;-63
2022/09/29 05:30:47;;;;;;;15.95;4.82;;;32.10;85.60;;;;;;5048085;28;20069;-62
2022/09/29 05:33:13;;;;;;;15.63;3.97;;;32.10;86.00;;;;;;5056335;28;21593;-64
2022/09/29 05:35:40;;;;;;;16.90;4.47;;;32.10;87.20;;;;;;5048017;28;20478;-64
2022/09/29 05:38:06;;;;;;;19.40;5.18;;;32.10;87.90;;;;;;5055765;28;20111;-63
2022/09/29 05:40:36;;;;;;;22.33;6.10;;;32.10;88.20;;;;;;5050376;28;20048;-66
2022/09/29 05:43:02;;;;;;;23.02;6.68;;;32.00;88.10;;;;;;5060656;28;20035;-61
2022/09/29 05:45:29;;;;;;;27.75;7.22;;;32.00;88.00;;;;;;5061301;28;20055;-62
2022/09/29 05:47:56;;;;;;;17.13;6.68;;;31.90;86.90;;;;;;5052198;28;20032;-65
2022/09/29 05:50:22;;;;;;;16.15;5.90;;;31.90;86.10;;;;;;5052338;28;20433;-62
2022/09/29 05:52:49;;;;;;;18.30;5.60;;;31.90;85.90;;;;;;5052128;28;20032;-62
2022/09/29 05:55:16;;;;;;;19.88;5.60;;;31.90;85.90;;;;;;5052299;28;20024;-62
2022/09/29 05:57:46;;;;;;;16.63;5.30;;;31.90;85.40;;;;;;5054351;28;20017;-63
2022/09/29 06:00:12;;;;;;;18.90;5.60;;;31.80;84.50;;;;;;5052698;28;20025;-62
2022/09/29 06:02:39;;;;;;;18.98;5.50;;;31.90;83.40;;;;;;5051814;28;20027;-62
2022/09/29 06:05:05;;;;;;;12.45;4.30;;;31.90;83.20;;;;;;5053887;28;20092;-63
2022/09/29 06:07:32;;;;;;;19.38;4.88;;;31.90;82.50;;;;;;5053690;28;20033;-58
2022/09/29 06:09:58;;;;;;;23.65;5.28;;;31.90;82.40;;;;;;5053583;28;20039;-61
2022/09/29 06:12:25;;;;;;;19.60;5.05;;;31.90;82.00;;;;;;5054330;28;20055;-61
2022/09/29 06:14:51;;;;;;;18.35;4.28;;;31.90;81.70;;;;;;5051755;28;20392;-62
2022/09/29 06:17:18;;;;;;;32.75;5.05;;;31.90;81.10;;;;;;5053425;28;20021;-62
2022/09/29 06:19:44;;;;;;;21.85;5.13;;;31.90;81.10;;;;;;5056474;28;20075;-62
2022/09/29 06:22:11;;;;;;;14.85;4.55;;;31.90;81.20;;;;;;5053429;28;20478;-62
2022/09/29 06:24:37;;;;;;;26.90;4.78;;;31.90;80.60;;;;;;5057567;28;20094;-62
2022/09/29 06:27:03;;;;;;;17.95;4.63;;;31.90;80.70;;;;;;5051781;28;20032;-61
2022/09/29 06:29:30;;;;;;;19.25;4.30;;;31.90;81.00;;;;;;5049522;28;20037;-61
2022/09/29 06:31:56;;;;;;;17.13;4.30;;;31.90;80.60;;;;;;5053554;28;20032;-63
2022/09/29 06:34:22;;;;;;;18.30;4.28;;;31.90;80.80;;;;;;5051811;28;20118;-63
2022/09/29 06:39:33;;;;;;;22.58;4.55;;;31.90;81.40;;;;;;5050335;28;20032;-61
2022/09/29 06:42:00;;;;;;;16.50;4.40;;;31.90;81.80;;;;;;5051051;28;20032;-63
2022/09/29 06:44:29;;;;;;;18.70;4.63;;;31.90;82.50;;;;;;5054509;28;20108;-63
2022/09/29 06:46:57;;;;;;;16.20;4.53;;;31.80;83.40;;;;;;5054023;28;20155;-61
2022/09/29 06:49:25;;;;;;;21.25;5.95;;;31.80;84.40;;;;;;5050729;28;20470;-64
2022/09/29 06:51:51;;;;;;;18.77;5.43;;;31.70;85.10;;;;;;5054273;28;20108;-62
2022/09/29 06:54:21;;;;;;;16.73;5.70;;;31.70;85.80;;;;;;5052186;28;20017;-65
2022/09/29 06:56:48;;;;;;;16.98;5.30;;;31.70;86.10;;;;;;5051965;28;20025;-62
2022/09/29 06:59:16;;;;;;;19.58;6.20;;;31.70;86.20;;;;;;5056361;28;20029;-65
2022/09/29 07:01:43;;;;;;;17.83;5.90;;;31.60;86.10;;;;;;5051189;28;20017;-62
2022/09/29 07:04:10;;;;;;;22.63;5.63;;;31.60;86.00;;;;;;5051719;28;20025;-60
2022/09/29 07:06:36;;;;;;;20.23;4.28;;;31.50;87.00;;;;;;5050231;28;20036;-62
2022/09/29 07:09:03;;;;;;;13.93;4.35;;;31.60;86.90;;;;;;5050487;28;20021;-64
2022/09/29 07:11:29;;;;;;;15.40;4.00;;;31.50;87.30;;;;;;5050434;28;20029;-63
2022/09/29 07:13:55;;;;;;;18.83;5.03;;;31.50;87.60;;;;;;5050783;28;20013;-66
2022/09/29 07:16:22;;;;;;;17.75;4.28;;;31.50;88.80;;;;;;5055771;28;20044;-63
2022/09/29 07:18:50;;;;;;;14.50;3.40;;;31.50;90.10;;;;;;5056224;28;20025;-61
2022/09/29 07:21:17;;;;;;;15.70;3.22;;;31.40;91.10;;;;;;5049939;28;20052;-64
2022/09/29 07:23:45;;;;;;;25.25;3.60;;;31.30;94.20;;;;;;5051309;28;20070;-63
2022/09/29 07:26:12;;;;;;;18.95;4.07;;;31.00;96.80;;;;;;5053574;28;20036;-62
2022/09/29 07:28:38;;;;;;;21.08;4.55;;;31.10;98.20;;;;;;5051177;28;20017;-63
2022/09/29 07:31:11;;;;;;;17.27;3.95;;;31.00;99.10;;;;;;5050567;28;20060;-62
2022/09/29 07:33:37;;;;;;;15.88;4.13;;;30.90;99.90;;;;;;5052686;28;20104;-65
2022/09/29 07:36:04;;;;;;;18.75;4.15;;;30.90;99.90;;;;;;5049169;28;20024;-62
2022/09/29 07:38:32;;;;;;;20.50;4.32;;;30.80;99.90;;;;;;5051108;28;20017;-62
2022/09/29 07:41:03;;;;;;;14.07;4.07;;;30.70;99.90;;;;;;5055457;28;20487;-63
2022/09/29 07:43:31;;;;;;;18.02;4.40;;;30.60;99.90;;;;;;5049378;28;20035;-62
2022/09/29 07:45:59;;;;;;;22.33;4.75;;;30.50;99.90;;;;;;5051442;28;20083;-64
2022/09/29 07:48:26;;;;;;;20.92;5.05;;;30.50;99.90;;;;;;5050740;28;20397;-64
2022/09/29 07:51:01;;;;;;;18.80;4.82;;;30.40;99.90;;;;;;5048982;28;20083;-63
2022/09/29 07:53:28;;;;;;;28.55;4.88;;;30.30;99.90;;;;;;5049327;28;20044;-62
2022/09/29 07:55:54;;;;;;;22.55;5.05;;;30.30;99.90;;;;;;5050146;28;20531;-63
2022/09/29 07:58:21;;;;;;;18.08;4.30;;;30.20;99.90;;;;;;5052265;28;20029;-63
2022/09/29 08:00:54;;;;;;;18.20;4.28;;;30.10;99.90;;;;;;5048669;28;20067;-62
2022/09/29 08:03:20;;;;;;;19.88;4.82;;;30.10;99.90;;;;;;5048921;28;20116;-62
2022/09/29 08:05:48;;;;;;;19.83;5.32;;;30.10;99.90;;;;;;5047602;28;20416;-63
2022/09/29 08:08:14;;;;;;;25.10;4.18;;;30.00;99.90;;;;;;5048726;28;20021;-62
2022/09/29 08:10:41;;;;;;;17.15;4.45;;;29.90;99.90;;;;;;5051512;28;20028;-62
2022/09/29 08:13:11;;;;;;;14.60;4.32;;;29.90;99.90;;;;;;5047998;28;20561;-63
2022/09/29 08:15:37;;;;;;;22.08;4.57;;;29.80;99.90;;;;;;5049578;28;20029;-60
2022/09/29 08:18:04;;;;;;;22.30;4.15;;;29.80;99.90;;;;;;5061681;28;20028;-62
2022/09/29 08:20:31;;;;;;;15.70;4.53;;;29.80;99.90;;;;;;5048977;28;20560;-62
2022/09/29 08:22:58;;;;;;;24.48;4.20;;;29.70;99.90;;;;;;5050170;28;20024;-63
2022/09/29 08:25:25;;;;;;;25.48;4.28;;;29.70;99.90;;;;;;5053118;28;20021;-62
2022/09/29 08:27:52;;;;;;;22.65;4.50;;;29.70;99.90;;;;;;5049700;28;20032;-62
2022/09/29 08:30:18;;;;;;;16.70;4.60;;;29.70;99.90;;;;;;5047336;28;20045;-61
2022/09/29 08:32:51;;;;;;;15.18;4.00;;;29.70;99.90;;;;;;5046857;28;20049;-61
2022/09/29 08:35:18;;;;;;;14.73;3.72;;;29.70;99.90;;;;;;5047784;28;20020;-62
2022/09/29 08:37:44;;;;;;;33.58;5.40;;;29.60;99.90;;;;;;5048760;28;20160;-62
2022/09/29 08:40:11;;;;;;;24.27;6.47;;;29.60;99.90;;;;;;5049563;28;20035;-60
2022/09/29 08:42:59;;;;;;;28.73;7.93;;;29.60;99.90;;;;;;5052804;28;20032;-62
2022/09/29 08:45:45;;;;;;;24.85;8.48;;;29.60;99.90;;;;;;5057944;28;20050;-60
2022/09/29 08:48:20;;;;;;;31.13;10.07;;;29.60;99.90;;;;;;5047875;28;20111;-65
2022/09/29 08:51:03;;;;;;;35.50;9.68;;;29.50;99.90;;;;;;5050261;28;20041;-63
2022/09/29 08:53:33;;;;;;;22.67;7.20;;;29.50;99.90;;;;;;5047937;28;20021;-60
2022/09/29 08:56:17;;;;;;;25.50;6.07;;;29.50;99.90;;;;;;5051395;28;20017;-61
2022/09/29 08:58:43;;;;;;;29.52;5.68;;;29.50;99.90;;;;;;5048889;28;20071;-63
2022/09/29 09:01:31;;;;;;;22.10;5.28;;;29.50;99.90;;;;;;5048594;28;20017;-61
2022/09/29 09:04:25;;;;;;;25.13;5.15;;;29.50;99.90;;;;;;5047610;28;20126;-63
2022/09/29 09:07:07;;;;;;;22.58;4.88;;;29.40;99.90;;;;;;5047330;28;20021;-62
2022/09/29 09:10:01;;;;;;;30.50;4.85;;;29.50;99.90;;;;;;5047113;28;20053;-64
2022/09/29 09:12:51;;;;;;;20.63;4.28;;;29.50;99.90;;;;;;5048010;28;20023;-62
2022/09/29 09:15:48;;;;;;;25.40;4.13;;;29.50;99.90;;;;;;5048545;28;20051;-64
2022/09/29 09:18:30;;;;;;;11.77;3.03;;;29.50;99.90;;;;;;5051569;28;20060;-63
2022/09/29 09:21:07;;;;;;;15.05;3.45;;;29.60;99.90;;;;;;5052545;28;20440;-62
2022/09/29 09:23:54;;;;;;;11.45;3.38;;;29.60;99.90;;;;;;5052660;28;20082;-63
2022/09/29 09:26:32;;;;;;;13.27;2.53;;;29.60;99.90;;;;;;5052218;28;20021;-62
2022/09/29 09:29:04;;;;;;;12.77;3.03;;;29.60;99.90;;;;;;5053517;28;20032;-63
2022/09/29 09:31:42;;;;;;;14.25;2.80;;;29.60;99.90;;;;;;5049861;28;20068;-64
2022/09/29 09:34:19;;;;;;;14.35;2.33;;;29.60;99.90;;;;;;5051158;28;20021;-64
2022/09/29 09:36:53;;;;;;;22.67;2.85;;;29.70;99.90;;;;;;5051939;28;20040;-62
2022/09/29 09:39:26;;;;;;;10.77;2.35;;;29.70;99.90;;;;;;5052120;28;20032;-63
2022/09/29 09:41:56;;;;;;;8.15;2.50;;;29.70;99.90;;;;;;5060447;28;20504;-64
2022/09/29 09:44:32;;;;;;;8.52;2.13;;;29.80;99.90;;;;;;5051414;28;20366;-62
2022/09/29 09:47:08;;;;;;;14.60;2.55;;;29.80;99.90;;;;;;5052773;28;20027;-61
2022/09/29 09:49:44;;;;;;;9.88;2.33;;;29.80;99.90;;;;;;5057123;28;20033;-60
2022/09/29 09:52:22;;;;;;;17.90;2.65;;;29.70;99.90;;;;;;5051550;28;20032;-62
2022/09/29 09:54:58;;;;;;;12.98;2.80;;;29.70;99.90;;;;;;5051669;28;20025;-63
2022/09/29 09:57:37;;;;;;;18.08;2.92;;;29.70;99.90;;;;;;5052852;28;20108;-63
2022/09/29 10:00:29;;;;;;;12.40;3.15;;;29.60;99.90;;;;;;5052006;28;20113;-63
2022/09/29 10:03:03;;;;;;;11.98;2.97;;;29.60;99.90;;;;;;5051734;28;20112;-61
2022/09/29 10:05:39;;;;;;;8.82;2.60;;;29.60;99.90;;;;;;5050558;28;20083;-61
2022/09/29 10:08:10;;;;;;;11.43;2.75;;;29.70;99.90;;;;;;5056784;28;21144;-62
2022/09/29 10:10:39;;;;;;;14.43;3.08;;;29.70;99.90;;;;;;5055570;28;20040;-63
2022/09/29 10:13:10;;;;;;;21.50;3.05;;;29.70;99.90;;;;;;5051278;28;20017;-63
2022/09/29 10:15:39;;;;;;;11.60;3.28;;;29.70;99.90;;;;;;5051438;28;20017;-65
2022/09/29 10:18:16;;;;;;;20.67;5.07;;;29.60;99.90;;;;;;5051363;28;20023;-65
2022/09/29 10:20:43;;;;;;;21.80;6.25;;;29.60;99.90;;;;;;5059379;28;20029;-61
2022/09/29 10:23:37;;;;;;;25.90;8.38;;;29.60;99.90;;;;;;5051020;28;20102;-62
2022/09/29 10:26:24;;;;;;;23.10;8.45;;;29.60;99.90;;;;;;5057568;28;20063;-62
2022/09/29 10:28:57;;;;;;;18.23;6.28;;;29.60;99.90;;;;;;5050016;28;20044;-61
2022/09/29 10:31:32;;;;;;;15.82;4.47;;;29.60;99.90;;;;;;5050173;28;20044;-64
2022/09/29 10:34:09;;;;;;;9.35;3.95;;;29.60;99.90;;;;;;5050277;28;20104;-64
2022/09/29 10:36:59;;;;;;;8.40;2.88;;;29.60;99.90;;;;;;5050447;28;20048;-65
2022/09/29 10:39:44;;;;;;;12.93;2.88;;;29.60;99.90;;;;;;5050889;28;20048;-62
2022/09/29 10:42:22;;;;;;;13.65;3.03;;;29.60;99.90;;;;;;5051507;28;20037;-61
2022/09/29 10:44:59;;;;;;;9.13;3.25;;;29.60;99.90;;;;;;5051242;28;20485;-62
2022/09/29 10:47:26;;;;;;;15.18;3.50;;;29.60;99.90;;;;;;5049834;28;20036;-63
2022/09/29 10:50:25;;;;;;;7.75;3.08;;;29.60;99.90;;;;;;5050852;28;20029;-62
2022/09/29 10:52:55;;;;;;;11.82;2.85;;;29.60;99.90;;;;;;5004103;28;20042;-62
2022/09/29 10:55:24;;;;;;;17.52;2.60;;;29.60;99.90;;;;;;5005428;28;20040;-62
2022/09/29 10:57:57;;;;;;;10.40;2.60;;;29.50;99.90;;;;;;5004008;28;20038;-61
2022/09/29 11:00:36;;;;;;;12.65;2.45;;;29.50;99.90;;;;;;5004432;28;20053;-62
2022/09/29 11:03:26;;;;;;;10.70;2.38;;;29.50;99.90;;;;;;5004892;28;20077;-62
2022/09/29 11:05:58;;;;;;;7.95;2.42;;;29.50;99.90;;;;;;5002061;28;20495;-63
2022/09/29 11:08:26;;;;;;;11.00;2.75;;;29.50;99.90;;;;;;4987962;28;20443;-65
2022/09/29 11:11:08;;;;;;;13.48;2.85;;;29.50;99.90;;;;;;5005054;28;20140;-63
2022/09/29 11:13:39;;;;;;;8.43;2.25;;;29.50;99.90;;;;;;5003466;28;20105;-62
2022/09/29 11:16:28;;;;;;;10.63;3.33;;;29.50;99.90;;;;;;5006590;28;20041;-63
2022/09/29 11:19:05;;;;;;;8.25;2.63;;;29.40;99.90;;;;;;4987993;28;20045;-63
2022/09/29 11:22:26;;;;;;;8.05;2.97;;;29.40;99.90;;;;;;5002295;28;20036;-64
2022/09/29 11:25:10;;;;;;;17.15;3.50;;;29.40;99.90;;;;;;4970741;28;20042;-61
2022/09/29 11:27:57;;;;;;;14.15;3.08;;;29.40;99.90;;;;;;5006043;28;20030;-61
2022/09/29 11:30:37;;;;;;;17.83;3.20;;;29.40;99.90;;;;;;5050360;28;20037;-63
2022/09/29 11:33:17;;;;;;;11.07;3.45;;;29.30;99.90;;;;;;5050010;28;20493;-61
2022/09/29 11:35:43;;;;;;;12.30;3.53;;;29.40;99.90;;;;;;5044577;28;20069;-62
2022/09/29 11:38:37;;;;;;;24.65;4.32;;;29.30;99.90;;;;;;5050027;28;20047;-62
2022/09/29 11:41:19;;;;;;;16.27;3.72;;;29.30;99.90;;;;;;5048859;28;20022;-63
2022/09/29 11:43:46;;;;;;;13.57;3.30;;;29.40;99.90;;;;;;5048861;28;20017;-63
2022/09/29 11:46:34;;;;;;;14.30;3.92;;;29.30;99.90;;;;;;5050484;28;20489;-61
2022/09/29 11:49:38;;;;;;;11.13;2.88;;;29.20;99.90;;;;;;5049065;28;20060;-63
2022/09/29 11:52:17;;;;;;;12.10;3.35;;;29.20;99.90;;;;;;5055994;28;20049;-62
2022/09/29 11:55:02;;;;;;;11.30;3.20;;;29.30;99.90;;;;;;5048526;28;20482;-65
2022/09/29 11:57:46;;;;;;;15.52;3.15;;;29.20;99.90;;;;;;5048777;28;20040;-62
2022/09/29 12:00:16;;;;;;;17.80;3.80;;;29.20;99.90;;;;;;5047213;28;20055;-63
2022/09/29 12:03:01;;;;;;;15.98;4.43;;;29.20;99.90;;;;;;5047843;28;20033;-62
2022/09/29 12:05:56;;;;;;;12.07;3.67;;;29.20;99.90;;;;;;5049001;28;20127;-64
2022/09/29 12:08:35;;;;;;;15.77;3.53;;;29.10;99.90;;;;;;5047788;28;20059;-64
2022/09/29 12:11:32;;;;;;;11.70;3.65;;;29.20;99.90;;;;;;5049196;28;20037;-63
2022/09/29 12:14:12;;;;;;;11.35;3.05;;;29.10;99.90;;;;;;5048124;28;20021;-64
2022/09/29 12:16:53;;;;;;;12.52;3.17;;;29.10;99.90;;;;;;5050011;28;20394;-62
2022/09/29 12:19:25;;;;;;;13.13;3.83;;;29.00;99.90;;;;;;5048703;28;20063;-63
2022/09/29 12:21:54;;;;;;;10.65;3.40;;;29.00;99.90;;;;;;5049254;28;20495;-63
2022/09/29 12:24:35;;;;;;;11.07;3.13;;;28.90;99.90;;;;;;5049688;28;20091;-62
2022/09/29 12:27:11;;;;;;;12.05;3.20;;;28.90;99.90;;;;;;5048856;28;20104;-63
2022/09/29 12:29:43;;;;;;;12.93;3.10;;;28.90;99.90;;;;;;5050009;28;20037;-63
2022/09/29 12:32:25;;;;;;;11.65;3.50;;;28.80;99.90;;;;;;5049616;28;20381;-62
2022/09/29 12:35:02;;;;;;;10.88;3.13;;;28.80;99.90;;;;;;5046451;28;20501;-62
2022/09/29 12:37:57;;;;;;;8.18;2.83;;;28.80;99.90;;;;;;5047537;28;20036;-63
2022/09/29 12:40:48;;;;;;;14.30;3.78;;;28.70;99.90;;;;;;5048625;28;20032;-63
2022/09/29 12:43:32;;;;;;;11.90;3.22;;;28.60;99.90;;;;;;5048878;28;20426;-64
2022/09/29 12:46:01;;;;;;;17.33;3.95;;;28.60;99.90;;;;;;5048958;28;20028;-63
2022/09/29 12:48:45;;;;;;;14.80;3.35;;;28.60;99.90;;;;;;5048327;28;20033;-62
2022/09/29 12:51:23;;;;;;;10.23;3.70;;;28.50;99.90;;;;;;5059495;28;20032;-62
2022/09/29 12:54:14;;;;;;;14.93;4.57;;;28.30;99.90;;;;;;5052399;28;20151;-62
2022/09/29 12:57:01;;;;;;;13.60;4.10;;;28.30;99.90;;;;;;5048181;28;20021;-63
2022/09/29 12:59:42;;;;;;;11.70;3.92;;;28.30;99.90;;;;;;5050876;28;20048;-63
2022/09/29 13:02:34;;;;;;;13.60;4.70;;;28.30;99.90;;;;;;5048050;28;20363;-63
2022/09/29 13:05:15;;;;;;;10.80;4.18;;;28.20;99.90;;;;;;5029757;28;20032;-63
2022/09/29 13:07:51;;;;;;;8.45;4.38;;;28.20;99.90;;;;;;5049277;28;20036;-65
2022/09/29 13:10:42;;;;;;;13.65;4.00;;;28.20;99.90;;;;;;5048636;28;20107;-63
2022/09/29 13:13:31;;;;;;;14.55;5.40;;;28.20;99.90;;;;;;5048091;28;20107;-62